sensor_id;sensor_type;location;lat;lon;timestamp;temperature;humidity
25128;DHT22;13107;51.304;6.866;2023-05-13T00:03:41;9.20;99.90
25128;DHT22;13107;51.304;6.866;2023-05-13T00:07:43;9.20;99.90
25128;DHT22;13107;51.304;6.866;2023-05-13T00:11:44;9.10;99.90
25128;DHT22;13107;51.304;6.866;2023-05-13T00:15:46;9.20;99.90
25128;DHT22;13107;51.304;6.866;2023-05-13T00:19:48;9.20;99.90
25128;DHT22;13107;51.304;6.866;2023-05-13T00:23:50;9.00;99.90
25128;DHT22;13107;51.304;6.866;2023-05-13T00:27:52;9.00;99.90
25128;DHT22;13107;51.304;6.866;2023-05-13T00:31:53;9.00;99.90
25128;DHT22;13107;51.304;6.866;2023-05-13T00:35:56;8.90;99.90
25128;DHT22;13107;51.304;6.866;2023-05-13T00:39:58;9.00;99.90
25128;DHT22;13107;51.304;6.866;2023-05-13T00:44:00;9.10;99.90
25128;DHT22;13107;51.304;6.866;2023-05-13T00:48:05;9.20;99.90
25128;DHT22;13107;51.304;6.866;2023-05-13T00:52:07;9.30;99.90
25128;DHT22;13107;51.304;6.866;2023-05-13T00:56:08;9.30;99.90
25128;DHT22;13107;51.304;6.866;2023-05-13T01:00:10;9.30;99.90
25128;DHT22;13107;51.304;6.866;2023-05-13T01:13:13;9.40;99.90
25128;DHT22;13107;51.304;6.866;2023-05-13T01:17:27;9.40;99.90
25128;DHT22;13107;51.304;6.866;2023-05-13T01:21:36;9.50;99.90
25128;DHT22;13107;51.304;6.866;2023-05-13T01:25:39;9.50;99.90
25128;DHT22;13107;51.304;6.866;2023-05-13T01:29:42;9.50;99.90
25128;DHT22;13107;51.304;6.866;2023-05-13T01:33:45;9.50;99.90
25128;DHT22;13107;51.304;6.866;2023-05-13T01:37:48;9.50;99.90
25128;DHT22;13107;51.304;6.866;2023-05-13T01:41:51;9.60;99.90
25128;DHT22;13107;51.304;6.866;2023-05-13T01:45:52;9.80;99.90
25128;DHT22;13107;51.304;6.866;2023-05-13T01:49:54;10.10;99.90
25128;DHT22;13107;51.304;6.866;2023-05-13T01:53:56;10.40;99.90
25128;DHT22;13107;51.304;6.866;2023-05-13T01:57:58;10.40;99.90
25128;DHT22;13107;51.304;6.866;2023-05-13T02:02:00;10.60;99.90
25128;DHT22;13107;51.304;6.866;2023-05-13T02:06:01;10.60;99.90
25128;DHT22;13107;51.304;6.866;2023-05-13T02:10:03;10.60;99.90
25128;DHT22;13107;51.304;6.866;2023-05-13T02:14:05;10.60;99.90
25128;DHT22;13107;51.304;6.866;2023-05-13T02:18:07;10.70;99.90
25128;DHT22;13107;51.304;6.866;2023-05-13T02:22:09;10.80;99.90
25128;DHT22;13107;51.304;6.866;2023-05-13T02:26:11;10.80;99.90
25128;DHT22;13107;51.304;6.866;2023-05-13T02:30:12;11.00;99.90
25128;DHT22;13107;51.304;6.866;2023-05-13T02:34:14;10.90;99.90
25128;DHT22;13107;51.304;6.866;2023-05-13T02:38:16;11.00;99.90
25128;DHT22;13107;51.304;6.866;2023-05-13T02:42:17;11.00;99.90
25128;DHT22;13107;51.304;6.866;2023-05-13T02:46:19;11.10;99.90
25128;DHT22;13107;51.304;6.866;2023-05-13T02:50:21;11.00;99.90
25128;DHT22;13107;51.304;6.866;2023-05-13T02:54:23;11.00;99.90
25128;DHT22;13107;51.304;6.866;2023-05-13T02:58:25;10.90;99.90
25128;DHT22;13107;51.304;6.866;2023-05-13T03:02:26;10.90;99.90
25128;DHT22;13107;51.304;6.866;2023-05-13T03:06:28;10.80;99.90
25128;DHT22;13107;51.304;6.866;2023-05-13T03:10:30;10.90;99.90
25128;DHT22;13107;51.304;6.866;2023-05-13T03:14:32;10.80;99.90
25128;DHT22;13107;51.304;6.866;2023-05-13T03:18:35;10.80;99.90
25128;DHT22;13107;51.304;6.866;2023-05-13T03:22:37;10.70;99.90
25128;DHT22;13107;51.304;6.866;2023-05-13T03:26:41;10.70;99.90
25128;DHT22;13107;51.304;6.866;2023-05-13T03:30:43;10.70;99.90
25128;DHT22;13107;51.304;6.866;2023-05-13T03:34:45;10.60;99.90
25128;DHT22;13107;51.304;6.866;2023-05-13T03:38:46;10.50;99.90
25128;DHT22;13107;51.304;6.866;2023-05-13T03:42:48;10.30;99.90
25128;DHT22;13107;51.304;6.866;2023-05-13T03:46:50;10.20;99.90
25128;DHT22;13107;51.304;6.866;2023-05-13T03:50:51;10.10;99.90
25128;DHT22;13107;51.304;6.866;2023-05-13T03:54:53;9.90;99.90
25128;DHT22;13107;51.304;6.866;2023-05-13T03:58:55;10.00;99.90
25128;DHT22;13107;51.304;6.866;2023-05-13T04:02:56;9.90;99.90
25128;DHT22;13107;51.304;6.866;2023-05-13T04:06:58;9.90;99.90
25128;DHT22;13107;51.304;6.866;2023-05-13T04:11:00;9.80;99.90
25128;DHT22;13107;51.304;6.866;2023-05-13T04:15:02;9.80;99.90
25128;DHT22;13107;51.304;6.866;2023-05-13T04:19:03;9.80;99.90
25128;DHT22;13107;51.304;6.866;2023-05-13T04:23:06;9.90;99.90
25128;DHT22;13107;51.304;6.866;2023-05-13T04:27:07;10.00;99.90
25128;DHT22;13107;51.304;6.866;2023-05-13T04:31:09;10.10;99.90
25128;DHT22;13107;51.304;6.866;2023-05-13T04:35:12;10.30;99.90
25128;DHT22;13107;51.304;6.866;2023-05-13T04:39:14;10.70;99.90
25128;DHT22;13107;51.304;6.866;2023-05-13T04:43:16;11.10;99.90
25128;DHT22;13107;51.304;6.866;2023-05-13T04:47:18;11.60;99.90
25128;DHT22;13107;51.304;6.866;2023-05-13T04:51:19;12.00;99.90
25128;DHT22;13107;51.304;6.866;2023-05-13T04:55:22;12.70;99.90
25128;DHT22;13107;51.304;6.866;2023-05-13T04:59:24;13.10;99.90
25128;DHT22;13107;51.304;6.866;2023-05-13T05:03:26;13.60;99.90
25128;DHT22;13107;51.304;6.866;2023-05-13T05:07:28;13.90;99.90
25128;DHT22;13107;51.304;6.866;2023-05-13T05:11:30;14.20;99.90
25128;DHT22;13107;51.304;6.866;2023-05-13T05:15:31;14.30;99.90
25128;DHT22;13107;51.304;6.866;2023-05-13T05:19:33;14.30;99.90
25128;DHT22;13107;51.304;6.866;2023-05-13T05:23:35;14.00;99.90
25128;DHT22;13107;51.304;6.866;2023-05-13T05:27:37;13.70;99.90
25128;DHT22;13107;51.304;6.866;2023-05-13T05:31:38;13.40;99.90
25128;DHT22;13107;51.304;6.866;2023-05-13T05:35:40;13.20;99.90
25128;DHT22;13107;51.304;6.866;2023-05-13T05:39:42;13.10;99.90
25128;DHT22;13107;51.304;6.866;2023-05-13T05:43:44;12.90;99.90
25128;DHT22;13107;51.304;6.866;2023-05-13T05:47:46;12.80;99.90
25128;DHT22;13107;51.304;6.866;2023-05-13T05:51:47;12.80;99.90
25128;DHT22;13107;51.304;6.866;2023-05-13T05:55:49;12.70;99.90
25128;DHT22;13107;51.304;6.866;2023-05-13T05:59:53;12.80;99.90
25128;DHT22;13107;51.304;6.866;2023-05-13T06:03:55;12.70;99.90
25128;DHT22;13107;51.304;6.866;2023-05-13T06:07:57;12.90;99.90
25128;DHT22;13107;51.304;6.866;2023-05-13T06:11:58;13.00;99.90
25128;DHT22;13107;51.304;6.866;2023-05-13T06:16:01;13.10;99.90
25128;DHT22;13107;51.304;6.866;2023-05-13T06:20:03;13.20;99.90
25128;DHT22;13107;51.304;6.866;2023-05-13T06:24:05;13.40;99.90
25128;DHT22;13107;51.304;6.866;2023-05-13T06:28:06;13.80;99.90
25128;DHT22;13107;51.304;6.866;2023-05-13T06:32:09;14.60;99.90
25128;DHT22;13107;51.304;6.866;2023-05-13T06:36:10;15.20;99.90
25128;DHT22;13107;51.304;6.866;2023-05-13T06:40:13;15.80;99.90
25128;DHT22;13107;51.304;6.866;2023-05-13T06:44:15;15.60;99.90
25128;DHT22;13107;51.304;6.866;2023-05-13T06:48:16;15.40;99.90
25128;DHT22;13107;51.304;6.866;2023-05-13T06:52:18;15.90;99.90
25128;DHT22;13107;51.304;6.866;2023-05-13T06:56:20;16.00;99.90
25128;DHT22;13107;51.304;6.866;2023-05-13T07:00:24;16.20;99.90
25128;DHT22;13107;51.304;6.866;2023-05-13T07:04:26;16.20;99.90
25128;DHT22;13107;51.304;6.866;2023-05-13T07:08:30;16.00;99.90
25128;DHT22;13107;51.304;6.866;2023-05-13T07:12:32;16.30;99.90
25128;DHT22;13107;51.304;6.866;2023-05-13T07:16:34;16.60;99.90
25128;DHT22;13107;51.304;6.866;2023-05-13T07:20:36;16.60;99.90
25128;DHT22;13107;51.304;6.866;2023-05-13T07:24:38;16.30;99.90
25128;DHT22;13107;51.304;6.866;2023-05-13T07:28:39;16.30;99.90
25128;DHT22;13107;51.304;6.866;2023-05-13T07:32:41;16.60;99.90
25128;DHT22;13107;51.304;6.866;2023-05-13T07:36:43;16.50;99.90
25128;DHT22;13107;51.304;6.866;2023-05-13T07:40:45;16.50;99.90
25128;DHT22;13107;51.304;6.866;2023-05-13T07:44:46;16.60;99.90
25128;DHT22;13107;51.304;6.866;2023-05-13T07:48:48;16.50;99.90
25128;DHT22;13107;51.304;6.866;2023-05-13T07:52:50;16.10;99.90
25128;DHT22;13107;51.304;6.866;2023-05-13T07:56:52;15.40;99.90
25128;DHT22;13107;51.304;6.866;2023-05-13T08:00:53;15.40;99.90
25128;DHT22;13107;51.304;6.866;2023-05-13T08:04:55;15.30;99.90
25128;DHT22;13107;51.304;6.866;2023-05-13T08:08:57;15.10;99.90
25128;DHT22;13107;51.304;6.866;2023-05-13T08:12:59;15.10;99.90
25128;DHT22;13107;51.304;6.866;2023-05-13T08:17:04;15.10;99.90
25128;DHT22;13107;51.304;6.866;2023-05-13T08:21:06;15.20;99.90
25128;DHT22;13107;51.304;6.866;2023-05-13T08:25:08;15.60;99.90
25128;DHT22;13107;51.304;6.866;2023-05-13T08:29:11;15.80;99.90
25128;DHT22;13107;51.304;6.866;2023-05-13T08:33:15;16.30;99.90
25128;DHT22;13107;51.304;6.866;2023-05-13T08:37:17;17.30;99.90
25128;DHT22;13107;51.304;6.866;2023-05-13T08:41:19;17.80;99.90
25128;DHT22;13107;51.304;6.866;2023-05-13T08:45:25;18.10;99.90
25128;DHT22;13107;51.304;6.866;2023-05-13T08:49:28;19.30;99.90
25128;DHT22;13107;51.304;6.866;2023-05-13T08:53:30;20.70;99.90
25128;DHT22;13107;51.304;6.866;2023-05-13T08:57:32;21.70;99.90
25128;DHT22;13107;51.304;6.866;2023-05-13T09:01:34;22.60;99.90
25128;DHT22;13107;51.304;6.866;2023-05-13T09:05:36;22.00;99.90
25128;DHT22;13107;51.304;6.866;2023-05-13T09:09:39;21.90;99.90
25128;DHT22;13107;51.304;6.866;2023-05-13T09:13:42;22.50;99.90
25128;DHT22;13107;51.304;6.866;2023-05-13T09:17:51;22.90;99.90
25128;DHT22;13107;51.304;6.866;2023-05-13T09:21:54;23.50;99.90
25128;DHT22;13107;51.304;6.866;2023-05-13T09:25:56;23.40;99.90
25128;DHT22;13107;51.304;6.866;2023-05-13T09:29:58;23.40;99.90
25128;DHT22;13107;51.304;6.866;2023-05-13T09:34:01;24.30;99.90
25128;DHT22;13107;51.304;6.866;2023-05-13T09:38:12;24.10;97.20
25128;DHT22;13107;51.304;6.866;2023-05-13T09:42:18;24.20;93.40
25128;DHT22;13107;51.304;6.866;2023-05-13T09:46:20;24.30;95.60
25128;DHT22;13107;51.304;6.866;2023-05-13T09:50:22;24.30;95.20
25128;DHT22;13107;51.304;6.866;2023-05-13T09:54:24;24.10;92.10
25128;DHT22;13107;51.304;6.866;2023-05-13T09:58:28;23.60;91.20
25128;DHT22;13107;51.304;6.866;2023-05-13T10:02:31;22.80;89.30
25128;DHT22;13107;51.304;6.866;2023-05-13T10:06:34;22.70;94.40
25128;DHT22;13107;51.304;6.866;2023-05-13T10:10:37;22.60;91.30
25128;DHT22;13107;51.304;6.866;2023-05-13T10:14:39;22.40;92.60
25128;DHT22;13107;51.304;6.866;2023-05-13T10:18:42;22.90;94.10
25128;DHT22;13107;51.304;6.866;2023-05-13T10:22:44;22.50;93.70
25128;DHT22;13107;51.304;6.866;2023-05-13T10:26:47;23.10;92.70
25128;DHT22;13107;51.304;6.866;2023-05-13T10:30:52;22.90;91.80
25128;DHT22;13107;51.304;6.866;2023-05-13T10:39:14;23.00;91.20
25128;DHT22;13107;51.304;6.866;2023-05-13T10:47:23;23.70;91.20
25128;DHT22;13107;51.304;6.866;2023-05-13T10:51:25;23.50;89.80
25128;DHT22;13107;51.304;6.866;2023-05-13T10:55:27;23.50;86.90
25128;DHT22;13107;51.304;6.866;2023-05-13T10:59:29;23.80;91.30
25128;DHT22;13107;51.304;6.866;2023-05-13T11:03:31;24.00;90.90
25128;DHT22;13107;51.304;6.866;2023-05-13T11:07:37;24.10;85.80
25128;DHT22;13107;51.304;6.866;2023-05-13T11:11:40;23.90;85.20
25128;DHT22;13107;51.304;6.866;2023-05-13T11:15:48;23.70;86.50
25128;DHT22;13107;51.304;6.866;2023-05-13T11:19:51;23.40;84.30
25128;DHT22;13107;51.304;6.866;2023-05-13T11:24:01;23.40;90.50
25128;DHT22;13107;51.304;6.866;2023-05-13T11:28:06;23.60;84.70
25128;DHT22;13107;51.304;6.866;2023-05-13T11:32:09;24.10;84.40
25128;DHT22;13107;51.304;6.866;2023-05-13T11:36:11;24.10;80.10
25128;DHT22;13107;51.304;6.866;2023-05-13T11:40:21;23.80;78.80
25128;DHT22;13107;51.304;6.866;2023-05-13T11:44:24;24.00;81.30
25128;DHT22;13107;51.304;6.866;2023-05-13T11:48:26;24.20;82.10
25128;DHT22;13107;51.304;6.866;2023-05-13T11:52:28;24.20;78.10
25128;DHT22;13107;51.304;6.866;2023-05-13T11:56:29;25.20;77.40
25128;DHT22;13107;51.304;6.866;2023-05-13T12:00:33;25.40;76.00
25128;DHT22;13107;51.304;6.866;2023-05-13T12:04:35;25.90;75.40
25128;DHT22;13107;51.304;6.866;2023-05-13T12:08:43;26.80;70.50
25128;DHT22;13107;51.304;6.866;2023-05-13T12:12:46;27.70;68.40
25128;DHT22;13107;51.304;6.866;2023-05-13T12:16:48;28.00;65.10
25128;DHT22;13107;51.304;6.866;2023-05-13T12:20:51;28.10;64.70
25128;DHT22;13107;51.304;6.866;2023-05-13T12:24:52;27.80;61.20
25128;DHT22;13107;51.304;6.866;2023-05-13T12:28:58;27.30;60.70
25128;DHT22;13107;51.304;6.866;2023-05-13T12:33:00;27.00;63.00
25128;DHT22;13107;51.304;6.866;2023-05-13T12:37:09;27.00;61.10
25128;DHT22;13107;51.304;6.866;2023-05-13T12:41:12;26.70;58.60
25128;DHT22;13107;51.304;6.866;2023-05-13T12:45:14;26.60;61.90
25128;DHT22;13107;51.304;6.866;2023-05-13T12:49:16;25.60;56.90
25128;DHT22;13107;51.304;6.866;2023-05-13T12:53:17;25.50;60.00
25128;DHT22;13107;51.304;6.866;2023-05-13T12:57:19;25.90;58.30
25128;DHT22;13107;51.304;6.866;2023-05-13T13:01:21;25.30;59.20
25128;DHT22;13107;51.304;6.866;2023-05-13T13:05:23;23.60;62.90
25128;DHT22;13107;51.304;6.866;2023-05-13T13:09:25;22.50;66.60
25128;DHT22;13107;51.304;6.866;2023-05-13T13:13:27;22.00;68.80
25128;DHT22;13107;51.304;6.866;2023-05-13T13:17:29;22.00;73.20
25128;DHT22;13107;51.304;6.866;2023-05-13T13:21:31;22.70;70.50
25128;DHT22;13107;51.304;6.866;2023-05-13T13:25:32;23.60;72.90
25128;DHT22;13107;51.304;6.866;2023-05-13T13:29:34;24.00;65.90
25128;DHT22;13107;51.304;6.866;2023-05-13T13:33:36;23.60;68.50
25128;DHT22;13107;51.304;6.866;2023-05-13T13:37:38;23.60;64.30
25128;DHT22;13107;51.304;6.866;2023-05-13T13:41:39;23.50;64.40
25128;DHT22;13107;51.304;6.866;2023-05-13T13:45:41;23.60;62.80
25128;DHT22;13107;51.304;6.866;2023-05-13T13:49:43;23.80;62.30
25128;DHT22;13107;51.304;6.866;2023-05-13T13:53:44;24.50;67.30
25128;DHT22;13107;51.304;6.866;2023-05-13T13:57:46;24.70;61.80
25128;DHT22;13107;51.304;6.866;2023-05-13T14:01:48;24.50;62.00
25128;DHT22;13107;51.304;6.866;2023-05-13T14:05:50;24.20;62.40
25128;DHT22;13107;51.304;6.866;2023-05-13T14:09:52;23.30;63.30
25128;DHT22;13107;51.304;6.866;2023-05-13T14:13:54;22.80;65.70
25128;DHT22;13107;51.304;6.866;2023-05-13T14:17:56;22.50;66.90
25128;DHT22;13107;51.304;6.866;2023-05-13T14:21:57;22.40;65.70
25128;DHT22;13107;51.304;6.866;2023-05-13T14:25:59;22.30;63.00
25128;DHT22;13107;51.304;6.866;2023-05-13T14:30:01;22.00;62.60
25128;DHT22;13107;51.304;6.866;2023-05-13T14:34:03;21.80;63.40
25128;DHT22;13107;51.304;6.866;2023-05-13T14:38:26;21.90;66.00
25128;DHT22;13107;51.304;6.866;2023-05-13T14:42:28;22.40;66.00
25128;DHT22;13107;51.304;6.866;2023-05-13T14:46:30;22.70;66.50
25128;DHT22;13107;51.304;6.866;2023-05-13T14:50:34;22.40;68.30
25128;DHT22;13107;51.304;6.866;2023-05-13T14:54:36;22.70;68.10
25128;DHT22;13107;51.304;6.866;2023-05-13T14:58:38;23.20;65.30
25128;DHT22;13107;51.304;6.866;2023-05-13T15:02:40;23.70;63.00
25128;DHT22;13107;51.304;6.866;2023-05-13T15:06:42;23.00;66.30
25128;DHT22;13107;51.304;6.866;2023-05-13T15:10:44;22.90;70.40
25128;DHT22;13107;51.304;6.866;2023-05-13T15:14:53;22.60;66.70
25128;DHT22;13107;51.304;6.866;2023-05-13T15:18:55;22.00;71.60
25128;DHT22;13107;51.304;6.866;2023-05-13T15:22:56;20.90;79.80
25128;DHT22;13107;51.304;6.866;2023-05-13T15:27:00;19.90;85.40
25128;DHT22;13107;51.304;6.866;2023-05-13T15:31:01;19.60;91.50
25128;DHT22;13107;51.304;6.866;2023-05-13T15:35:03;19.30;91.70
25128;DHT22;13107;51.304;6.866;2023-05-13T15:39:05;19.10;93.50
25128;DHT22;13107;51.304;6.866;2023-05-13T15:43:07;18.50;97.00
25128;DHT22;13107;51.304;6.866;2023-05-13T15:47:09;17.80;99.90
25128;DHT22;13107;51.304;6.866;2023-05-13T15:51:11;17.30;99.90
25128;DHT22;13107;51.304;6.866;2023-05-13T15:55:12;17.10;99.90
25128;DHT22;13107;51.304;6.866;2023-05-13T15:59:14;17.00;99.90
25128;DHT22;13107;51.304;6.866;2023-05-13T16:03:16;17.20;99.90
25128;DHT22;13107;51.304;6.866;2023-05-13T16:07:17;17.30;99.90
25128;DHT22;13107;51.304;6.866;2023-05-13T16:11:19;17.40;99.90
25128;DHT22;13107;51.304;6.866;2023-05-13T16:15:21;17.50;99.90
25128;DHT22;13107;51.304;6.866;2023-05-13T16:19:22;17.60;99.90
25128;DHT22;13107;51.304;6.866;2023-05-13T16:23:24;17.50;99.90
25128;DHT22;13107;51.304;6.866;2023-05-13T16:27:27;17.50;99.90
25128;DHT22;13107;51.304;6.866;2023-05-13T16:31:29;17.50;99.90
25128;DHT22;13107;51.304;6.866;2023-05-13T16:35:31;17.30;99.90
25128;DHT22;13107;51.304;6.866;2023-05-13T16:39:32;17.20;99.90
25128;DHT22;13107;51.304;6.866;2023-05-13T16:43:34;17.20;99.90
25128;DHT22;13107;51.304;6.866;2023-05-13T16:47:36;17.20;99.90
25128;DHT22;13107;51.304;6.866;2023-05-13T16:51:37;17.30;99.90
25128;DHT22;13107;51.304;6.866;2023-05-13T16:55:39;17.30;99.90
25128;DHT22;13107;51.304;6.866;2023-05-13T16:59:41;17.40;99.90
25128;DHT22;13107;51.304;6.866;2023-05-13T17:03:43;17.40;99.90
25128;DHT22;13107;51.304;6.866;2023-05-13T17:07:45;17.40;99.90
25128;DHT22;13107;51.304;6.866;2023-05-13T17:11:47;17.60;99.90
25128;DHT22;13107;51.304;6.866;2023-05-13T17:15:48;17.60;99.90
25128;DHT22;13107;51.304;6.866;2023-05-13T17:19:50;17.70;99.90
25128;DHT22;13107;51.304;6.866;2023-05-13T17:23:52;17.60;99.90
25128;DHT22;13107;51.304;6.866;2023-05-13T17:27:54;17.50;99.90
25128;DHT22;13107;51.304;6.866;2023-05-13T17:31:55;17.60;99.90
25128;DHT22;13107;51.304;6.866;2023-05-13T17:35:57;17.50;99.90
25128;DHT22;13107;51.304;6.866;2023-05-13T17:39:59;17.50;99.90
25128;DHT22;13107;51.304;6.866;2023-05-13T17:44:03;17.50;99.90
25128;DHT22;13107;51.304;6.866;2023-05-13T17:48:04;17.40;99.90
25128;DHT22;13107;51.304;6.866;2023-05-13T17:52:06;17.30;99.90
25128;DHT22;13107;51.304;6.866;2023-05-13T17:56:08;17.20;99.90
25128;DHT22;13107;51.304;6.866;2023-05-13T18:00:12;17.10;99.90
25128;DHT22;13107;51.304;6.866;2023-05-13T18:04:14;17.10;99.90
25128;DHT22;13107;51.304;6.866;2023-05-13T18:08:15;17.20;99.90
25128;DHT22;13107;51.304;6.866;2023-05-13T18:12:17;17.10;99.90
25128;DHT22;13107;51.304;6.866;2023-05-13T18:16:19;17.10;99.90
25128;DHT22;13107;51.304;6.866;2023-05-13T18:20:21;17.00;99.90
25128;DHT22;13107;51.304;6.866;2023-05-13T18:24:23;17.00;99.90
25128;DHT22;13107;51.304;6.866;2023-05-13T18:28:24;16.90;99.90
25128;DHT22;13107;51.304;6.866;2023-05-13T18:32:26;16.90;99.90
25128;DHT22;13107;51.304;6.866;2023-05-13T18:36:28;16.90;99.90
25128;DHT22;13107;51.304;6.866;2023-05-13T18:40:30;16.70;99.90
25128;DHT22;13107;51.304;6.866;2023-05-13T18:44:32;16.70;99.90
25128;DHT22;13107;51.304;6.866;2023-05-13T18:48:34;16.50;99.90
25128;DHT22;13107;51.304;6.866;2023-05-13T18:52:36;16.40;99.90
25128;DHT22;13107;51.304;6.866;2023-05-13T18:56:37;16.20;99.90
25128;DHT22;13107;51.304;6.866;2023-05-13T19:00:39;15.90;99.90
25128;DHT22;13107;51.304;6.866;2023-05-13T19:04:41;15.70;99.90
25128;DHT22;13107;51.304;6.866;2023-05-13T19:08:43;15.40;99.90
25128;DHT22;13107;51.304;6.866;2023-05-13T19:12:44;15.20;99.90
25128;DHT22;13107;51.304;6.866;2023-05-13T19:16:46;15.00;99.90
25128;DHT22;13107;51.304;6.866;2023-05-13T19:20:48;14.80;99.90
25128;DHT22;13107;51.304;6.866;2023-05-13T19:24:50;14.50;99.90
25128;DHT22;13107;51.304;6.866;2023-05-13T19:28:51;14.30;99.90
25128;DHT22;13107;51.304;6.866;2023-05-13T19:32:53;14.20;99.90
25128;DHT22;13107;51.304;6.866;2023-05-13T19:36:55;14.00;99.90
25128;DHT22;13107;51.304;6.866;2023-05-13T19:40:56;13.80;99.90
25128;DHT22;13107;51.304;6.866;2023-05-13T19:44:58;13.60;99.90
25128;DHT22;13107;51.304;6.866;2023-05-13T19:49:00;13.40;99.90
25128;DHT22;13107;51.304;6.866;2023-05-13T19:53:01;13.30;99.90
25128;DHT22;13107;51.304;6.866;2023-05-13T19:57:03;13.10;99.90
25128;DHT22;13107;51.304;6.866;2023-05-13T20:01:05;13.00;99.90
25128;DHT22;13107;51.304;6.866;2023-05-13T20:05:07;12.90;99.90
25128;DHT22;13107;51.304;6.866;2023-05-13T20:09:09;12.80;99.90
25128;DHT22;13107;51.304;6.866;2023-05-13T20:13:12;12.60;99.90
25128;DHT22;13107;51.304;6.866;2023-05-13T20:17:16;12.50;99.90
25128;DHT22;13107;51.304;6.866;2023-05-13T20:21:18;12.40;99.90
25128;DHT22;13107;51.304;6.866;2023-05-13T20:25:20;12.30;99.90
25128;DHT22;13107;51.304;6.866;2023-05-13T20:29:22;12.20;99.90
25128;DHT22;13107;51.304;6.866;2023-05-13T20:33:23;12.10;99.90
25128;DHT22;13107;51.304;6.866;2023-05-13T20:37:25;12.00;99.90
25128;DHT22;13107;51.304;6.866;2023-05-13T20:41:27;11.90;99.90
25128;DHT22;13107;51.304;6.866;2023-05-13T20:45:29;11.80;99.90
25128;DHT22;13107;51.304;6.866;2023-05-13T20:49:31;11.70;99.90
25128;DHT22;13107;51.304;6.866;2023-05-13T20:53:34;11.60;99.90
25128;DHT22;13107;51.304;6.866;2023-05-13T20:57:36;11.50;99.90
25128;DHT22;13107;51.304;6.866;2023-05-13T21:01:38;11.50;99.90
25128;DHT22;13107;51.304;6.866;2023-05-13T21:05:40;11.40;99.90
25128;DHT22;13107;51.304;6.866;2023-05-13T21:09:42;11.40;99.90
25128;DHT22;13107;51.304;6.866;2023-05-13T21:13:43;11.30;99.90
25128;DHT22;13107;51.304;6.866;2023-05-13T21:17:45;11.20;99.90
25128;DHT22;13107;51.304;6.866;2023-05-13T21:21:48;11.20;99.90
25128;DHT22;13107;51.304;6.866;2023-05-13T21:25:49;11.20;99.90
25128;DHT22;13107;51.304;6.866;2023-05-13T21:29:51;11.20;99.90
25128;DHT22;13107;51.304;6.866;2023-05-13T21:33:53;11.20;99.90
25128;DHT22;13107;51.304;6.866;2023-05-13T21:37:55;11.20;99.90
25128;DHT22;13107;51.304;6.866;2023-05-13T21:42:12;11.20;99.90
25128;DHT22;13107;51.304;6.866;2023-05-13T21:46:14;11.30;99.90
25128;DHT22;13107;51.304;6.866;2023-05-13T21:50:15;11.30;99.90
25128;DHT22;13107;51.304;6.866;2023-05-13T21:54:17;11.30;99.90
25128;DHT22;13107;51.304;6.866;2023-05-13T21:58:19;11.40;99.90
25128;DHT22;13107;51.304;6.866;2023-05-13T22:02:24;11.40;99.90
25128;DHT22;13107;51.304;6.866;2023-05-13T22:06:25;11.40;99.90
25128;DHT22;13107;51.304;6.866;2023-05-13T22:10:28;11.40;99.90
25128;DHT22;13107;51.304;6.866;2023-05-13T22:14:30;11.40;99.90
25128;DHT22;13107;51.304;6.866;2023-05-13T22:18:31;11.40;99.90
25128;DHT22;13107;51.304;6.866;2023-05-13T22:22:33;11.40;99.90
25128;DHT22;13107;51.304;6.866;2023-05-13T22:26:35;11.40;99.90
25128;DHT22;13107;51.304;6.866;2023-05-13T22:30:37;11.40;99.90
25128;DHT22;13107;51.304;6.866;2023-05-13T22:34:38;11.40;99.90
25128;DHT22;13107;51.304;6.866;2023-05-13T22:38:41;11.40;99.90
25128;DHT22;13107;51.304;6.866;2023-05-13T22:42:43;11.40;99.90
25128;DHT22;13107;51.304;6.866;2023-05-13T22:46:44;11.40;99.90
25128;DHT22;13107;51.304;6.866;2023-05-13T22:50:46;11.30;99.90
25128;DHT22;13107;51.304;6.866;2023-05-13T22:54:48;11.30;99.90
25128;DHT22;13107;51.304;6.866;2023-05-13T22:58:50;11.30;99.90
25128;DHT22;13107;51.304;6.866;2023-05-13T23:02:51;11.30;99.90
25128;DHT22;13107;51.304;6.866;2023-05-13T23:06:53;11.20;99.90
25128;DHT22;13107;51.304;6.866;2023-05-13T23:10:55;11.20;99.90
25128;DHT22;13107;51.304;6.866;2023-05-13T23:14:57;11.20;99.90
25128;DHT22;13107;51.304;6.866;2023-05-13T23:18:58;11.10;99.90
25128;DHT22;13107;51.304;6.866;2023-05-13T23:23:00;11.10;99.90
25128;DHT22;13107;51.304;6.866;2023-05-13T23:27:02;11.10;99.90
25128;DHT22;13107;51.304;6.866;2023-05-13T23:31:04;11.10;99.90
25128;DHT22;13107;51.304;6.866;2023-05-13T23:35:06;11.10;99.90
25128;DHT22;13107;51.304;6.866;2023-05-13T23:39:08;11.00;99.90
25128;DHT22;13107;51.304;6.866;2023-05-13T23:43:10;11.00;99.90
25128;DHT22;13107;51.304;6.866;2023-05-13T23:47:11;10.90;99.90
25128;DHT22;13107;51.304;6.866;2023-05-13T23:51:13;10.80;99.90
25128;DHT22;13107;51.304;6.866;2023-05-13T23:55:16;10.80;99.90
25128;DHT22;13107;51.304;6.866;2023-05-13T23:59:19;10.70;99.90
